sensor_id;sensor_type;location;lat;lon;timestamp;pressure;altitude;pressure_sealevel;temperature;humidity
76732;BME280;65656;51.130;13.658;2022-12-07T00:01:30;99154.50;;;0.76;94.14
76732;BME280;65656;51.130;13.658;2022-12-07T00:03:59;99154.91;;;0.73;94.51
76732;BME280;65656;51.130;13.658;2022-12-07T00:06:26;99150.72;;;0.71;94.04
76732;BME280;65656;51.130;13.658;2022-12-07T00:08:53;99148.03;;;0.71;93.52
76732;BME280;65656;51.130;13.658;2022-12-07T00:11:21;99145.72;;;0.68;94.45
76732;BME280;65656;51.130;13.658;2022-12-07T00:13:51;99146.34;;;0.70;94.78
76732;BME280;65656;51.130;13.658;2022-12-07T00:16:19;99142.38;;;0.66;94.52
76732;BME280;65656;51.130;13.658;2022-12-07T00:18:47;99137.88;;;0.73;94.21
76732;BME280;65656;51.130;13.658;2022-12-07T00:21:15;99136.59;;;0.69;94.95
76732;BME280;65656;51.130;13.658;2022-12-07T00:23:44;99135.19;;;0.73;94.01
76732;BME280;65656;51.130;13.658;2022-12-07T00:26:12;99132.22;;;0.68;94.55
76732;BME280;65656;51.130;13.658;2022-12-07T00:28:40;99134.69;;;0.63;94.11
76732;BME280;65656;51.130;13.658;2022-12-07T00:31:07;99129.94;;;0.65;94.49
76732;BME280;65656;51.130;13.658;2022-12-07T00:33:35;99132.75;;;0.78;94.29
76732;BME280;65656;51.130;13.658;2022-12-07T00:36:05;99121.72;;;0.73;94.20
76732;BME280;65656;51.130;13.658;2022-12-07T00:38:34;99115.53;;;0.79;94.27
76732;BME280;65656;51.130;13.658;2022-12-07T00:41:02;99120.41;;;0.69;94.63
76732;BME280;65656;51.130;13.658;2022-12-07T00:43:30;99113.81;;;0.71;94.08
76732;BME280;65656;51.130;13.658;2022-12-07T00:45:57;99124.19;;;0.74;93.89
76732;BME280;65656;51.130;13.658;2022-12-07T00:48:24;99120.28;;;0.77;93.50
76732;BME280;65656;51.130;13.658;2022-12-07T00:50:51;99121.72;;;0.73;92.70
76732;BME280;65656;51.130;13.658;2022-12-07T00:53:19;99121.31;;;0.76;93.20
76732;BME280;65656;51.130;13.658;2022-12-07T00:55:46;99123.09;;;0.69;94.08
76732;BME280;65656;51.130;13.658;2022-12-07T00:58:13;99122.06;;;0.70;93.87
76732;BME280;65656;51.130;13.658;2022-12-07T01:00:41;99123.09;;;0.69;94.78
76732;BME280;65656;51.130;13.658;2022-12-07T01:03:10;99112.59;;;0.74;94.75
76732;BME280;65656;51.130;13.658;2022-12-07T01:05:37;99117.22;;;0.80;93.94
76732;BME280;65656;51.130;13.658;2022-12-07T01:08:04;99105.53;;;0.73;94.22
76732;BME280;65656;51.130;13.658;2022-12-07T01:10:32;99114.66;;;0.72;94.43
76732;BME280;65656;51.130;13.658;2022-12-07T01:12:59;99119.16;;;0.65;95.13
76732;BME280;65656;51.130;13.658;2022-12-07T01:15:26;99110.84;;;0.66;95.43
76732;BME280;65656;51.130;13.658;2022-12-07T01:17:53;99112.31;;;0.69;94.03
76732;BME280;65656;51.130;13.658;2022-12-07T01:20:19;99107.19;;;0.74;94.78
76732;BME280;65656;51.130;13.658;2022-12-07T01:22:46;99100.50;;;0.70;94.59
76732;BME280;65656;51.130;13.658;2022-12-07T01:25:12;99109.25;;;0.72;94.94
76732;BME280;65656;51.130;13.658;2022-12-07T01:27:40;99108.84;;;0.75;95.49
76732;BME280;65656;51.130;13.658;2022-12-07T01:30:09;99108.41;;;0.71;94.77
76732;BME280;65656;51.130;13.658;2022-12-07T01:32:36;99115.03;;;0.69;95.63
76732;BME280;65656;51.130;13.658;2022-12-07T01:35:03;99098.28;;;0.73;95.07
76732;BME280;65656;51.130;13.658;2022-12-07T01:37:34;99103.47;;;0.75;95.17
76732;BME280;65656;51.130;13.658;2022-12-07T01:40:00;99106.91;;;0.90;93.63
76732;BME280;65656;51.130;13.658;2022-12-07T01:42:28;99106.41;;;0.80;93.99
76732;BME280;65656;51.130;13.658;2022-12-07T01:47:56;99104.50;;;0.74;94.43
76732;BME280;65656;51.130;13.658;2022-12-07T01:50:26;99119.28;;;0.78;94.65
76732;BME280;65656;51.130;13.658;2022-12-07T01:52:56;99109.69;;;0.75;94.45
76732;BME280;65656;51.130;13.658;2022-12-07T01:55:24;99110.66;;;0.68;94.29
76732;BME280;65656;51.130;13.658;2022-12-07T01:57:53;99112.19;;;0.77;94.29
76732;BME280;65656;51.130;13.658;2022-12-07T02:00:20;99110.53;;;0.76;94.13
76732;BME280;65656;51.130;13.658;2022-12-07T02:02:51;99112.97;;;0.71;93.67
76732;BME280;65656;51.130;13.658;2022-12-07T02:05:21;99109.47;;;0.70;94.23
76732;BME280;65656;51.130;13.658;2022-12-07T02:07:49;99104.22;;;0.69;94.41
76732;BME280;65656;51.130;13.658;2022-12-07T02:10:19;99105.06;;;0.69;92.75
76732;BME280;65656;51.130;13.658;2022-12-07T02:12:48;99105.41;;;0.60;93.89
76732;BME280;65656;51.130;13.658;2022-12-07T02:15:15;99104.50;;;0.52;93.83
76732;BME280;65656;51.130;13.658;2022-12-07T02:17:48;99106.56;;;0.50;94.00
76732;BME280;65656;51.130;13.658;2022-12-07T02:20:26;99100.28;;;0.43;94.42
76732;BME280;65656;51.130;13.658;2022-12-07T02:23:23;99101.72;;;0.39;94.27
76732;BME280;65656;51.130;13.658;2022-12-07T02:26:15;99100.81;;;0.32;93.76
76732;BME280;65656;51.130;13.658;2022-12-07T02:28:56;99099.44;;;0.21;93.87
76732;BME280;65656;51.130;13.658;2022-12-07T02:31:28;99098.72;;;0.13;94.29
76732;BME280;65656;51.130;13.658;2022-12-07T02:34:04;99098.22;;;0.03;94.97
76732;BME280;65656;51.130;13.658;2022-12-07T02:36:38;99091.06;;;-0.05;94.83
76732;BME280;65656;51.130;13.658;2022-12-07T02:39:11;99087.66;;;-0.14;95.19
76732;BME280;65656;51.130;13.658;2022-12-07T02:41:44;99085.09;;;-0.22;95.51
76732;BME280;65656;51.130;13.658;2022-12-07T02:44:17;99090.09;;;-0.19;95.96
76732;BME280;65656;51.130;13.658;2022-12-07T02:46:50;99078.91;;;-0.16;96.08
76732;BME280;65656;51.130;13.658;2022-12-07T02:49:21;99081.13;;;-0.05;95.18
76732;BME280;65656;51.130;13.658;2022-12-07T02:51:49;99082.38;;;-0.07;95.15
76732;BME280;65656;51.130;13.658;2022-12-07T02:54:17;99071.13;;;-0.11;95.20
76732;BME280;65656;51.130;13.658;2022-12-07T02:56:48;99069.59;;;0.02;94.91
76732;BME280;65656;51.130;13.658;2022-12-07T02:59:26;99064.59;;;-0.02;94.98
76732;BME280;65656;51.130;13.658;2022-12-07T03:02:08;99055.25;;;-0.06;94.44
76732;BME280;65656;51.130;13.658;2022-12-07T03:04:45;99058.69;;;-0.12;94.36
76732;BME280;65656;51.130;13.658;2022-12-07T03:07:18;99057.03;;;-0.13;94.88
76732;BME280;65656;51.130;13.658;2022-12-07T03:09:52;99052.00;;;-0.16;95.21
76732;BME280;65656;51.130;13.658;2022-12-07T03:12:25;99049.06;;;-0.21;94.74
76732;BME280;65656;51.130;13.658;2022-12-07T03:15:08;99045.34;;;-0.20;95.00
76732;BME280;65656;51.130;13.658;2022-12-07T03:17:38;99038.28;;;-0.21;94.97
76732;BME280;65656;51.130;13.658;2022-12-07T03:20:09;99043.91;;;-0.16;94.80
76732;BME280;65656;51.130;13.658;2022-12-07T03:22:39;99038.28;;;-0.21;94.66
76732;BME280;65656;51.130;13.658;2022-12-07T03:25:09;99038.28;;;-0.21;94.36
76732;BME280;65656;51.130;13.658;2022-12-07T03:27:39;99037.91;;;-0.18;94.16
76732;BME280;65656;51.130;13.658;2022-12-07T03:30:13;99032.84;;;-0.28;94.62
76732;BME280;65656;51.130;13.658;2022-12-07T03:32:43;99038.66;;;-0.24;94.54
76732;BME280;65656;51.130;13.658;2022-12-07T03:35:14;99037.31;;;-0.35;95.08
76732;BME280;65656;51.130;13.658;2022-12-07T03:37:49;99036.19;;;-0.40;95.04
76732;BME280;65656;51.130;13.658;2022-12-07T03:40:23;99035.72;;;-0.29;94.77
76732;BME280;65656;51.130;13.658;2022-12-07T03:42:53;99033.22;;;-0.31;95.06
76732;BME280;65656;51.130;13.658;2022-12-07T03:45:30;99035.16;;;-0.39;94.79
76732;BME280;65656;51.130;13.658;2022-12-07T03:48:02;99027.84;;;-0.31;94.40
76732;BME280;65656;51.130;13.658;2022-12-07T03:50:38;99017.81;;;-0.37;94.38
76732;BME280;65656;51.130;13.658;2022-12-07T03:53:10;99019.56;;;-0.29;93.83
76732;BME280;65656;51.130;13.658;2022-12-07T03:55:41;99022.63;;;-0.32;94.42
76732;BME280;65656;51.130;13.658;2022-12-07T03:58:09;99025.47;;;-0.19;92.73
76732;BME280;65656;51.130;13.658;2022-12-07T04:00:38;99026.13;;;-0.32;93.83
76732;BME280;65656;51.130;13.658;2022-12-07T04:03:06;99026.88;;;-0.23;92.73
76732;BME280;65656;51.130;13.658;2022-12-07T04:05:33;99023.28;;;-0.30;93.12
76732;BME280;65656;51.130;13.658;2022-12-07T04:07:59;99019.56;;;-0.29;92.63
76732;BME280;65656;51.130;13.658;2022-12-07T04:10:26;99004.44;;;-0.30;92.67
76732;BME280;65656;51.130;13.658;2022-12-07T04:12:53;99005.47;;;-0.31;93.06
76732;BME280;65656;51.130;13.658;2022-12-07T04:15:19;99002.50;;;-0.36;92.71
76732;BME280;65656;51.130;13.658;2022-12-07T04:17:47;99004.56;;;-0.38;92.23
76732;BME280;65656;51.130;13.658;2022-12-07T04:20:13;99004.28;;;-0.43;92.96
76732;BME280;65656;51.130;13.658;2022-12-07T04:22:40;99002.16;;;-0.48;92.53
76732;BME280;65656;51.130;13.658;2022-12-07T04:25:07;99003.38;;;-0.50;93.32
76732;BME280;65656;51.130;13.658;2022-12-07T04:27:33;99001.06;;;-0.53;92.65
76732;BME280;65656;51.130;13.658;2022-12-07T04:30:00;98991.97;;;-0.52;92.66
76732;BME280;65656;51.130;13.658;2022-12-07T04:32:27;98989.41;;;-0.61;93.45
76732;BME280;65656;51.130;13.658;2022-12-07T04:34:55;98981.78;;;-0.72;93.54
76732;BME280;65656;51.130;13.658;2022-12-07T04:37:22;98978.56;;;-0.82;94.46
76732;BME280;65656;51.130;13.658;2022-12-07T04:39:49;98972.56;;;-0.84;94.31
76732;BME280;65656;51.130;13.658;2022-12-07T04:42:15;98960.88;;;-0.91;94.51
76732;BME280;65656;51.130;13.658;2022-12-07T04:44:42;98964.59;;;-0.92;94.50
76732;BME280;65656;51.130;13.658;2022-12-07T04:47:09;98970.41;;;-0.89;94.68
76732;BME280;65656;51.130;13.658;2022-12-07T04:49:36;98966.16;;;-0.83;94.30
76732;BME280;65656;51.130;13.658;2022-12-07T04:52:04;98971.72;;;-0.85;94.26
76732;BME280;65656;51.130;13.658;2022-12-07T04:54:30;98971.78;;;-0.78;93.52
76732;BME280;65656;51.130;13.658;2022-12-07T04:56:57;98969.00;;;-0.70;92.80
76732;BME280;65656;51.130;13.658;2022-12-07T04:59:24;98958.69;;;-0.66;93.01
76732;BME280;65656;51.130;13.658;2022-12-07T05:01:50;98958.78;;;-0.60;92.59
76732;BME280;65656;51.130;13.658;2022-12-07T05:04:17;98955.81;;;-0.65;92.38
76732;BME280;65656;51.130;13.658;2022-12-07T05:06:43;98954.78;;;-0.64;91.88
76732;BME280;65656;51.130;13.658;2022-12-07T05:09:11;98955.88;;;-0.58;91.60
76732;BME280;65656;51.130;13.658;2022-12-07T05:11:38;98952.75;;;-0.62;91.68
76732;BME280;65656;51.130;13.658;2022-12-07T05:14:06;98941.72;;;-0.67;91.89
76732;BME280;65656;51.130;13.658;2022-12-07T05:16:34;98945.69;;;-0.63;91.66
76732;BME280;65656;51.130;13.658;2022-12-07T05:19:01;98948.16;;;-0.46;90.44
76732;BME280;65656;51.130;13.658;2022-12-07T05:21:27;98942.38;;;-0.43;90.61
76732;BME280;65656;51.130;13.658;2022-12-07T05:23:54;98939.69;;;-0.43;90.52
76732;BME280;65656;51.130;13.658;2022-12-07T05:26:22;98941.22;;;-0.34;90.28
76732;BME280;65656;51.130;13.658;2022-12-07T05:28:50;98939.63;;;-0.29;89.93
76732;BME280;65656;51.130;13.658;2022-12-07T05:31:17;98944.44;;;-0.24;89.30
76732;BME280;65656;51.130;13.658;2022-12-07T05:33:43;98947.66;;;-0.14;89.02
76732;BME280;65656;51.130;13.658;2022-12-07T05:36:10;98942.25;;;-0.14;88.39
76732;BME280;65656;51.130;13.658;2022-12-07T05:38:36;98937.38;;;-0.04;87.97
76732;BME280;65656;51.130;13.658;2022-12-07T05:41:04;98934.94;;;0.02;87.95
76732;BME280;65656;51.130;13.658;2022-12-07T05:43:33;98932.44;;;0.00;88.10
76732;BME280;65656;51.130;13.658;2022-12-07T05:45:59;98936.59;;;0.03;88.08
76732;BME280;65656;51.130;13.658;2022-12-07T05:48:26;98923.47;;;0.21;85.95
76732;BME280;65656;51.130;13.658;2022-12-07T05:50:53;98925.81;;;0.24;85.58
76732;BME280;65656;51.130;13.658;2022-12-07T05:53:19;98908.16;;;0.21;86.47
76732;BME280;65656;51.130;13.658;2022-12-07T05:55:49;98915.41;;;0.21;86.24
76732;BME280;65656;51.130;13.658;2022-12-07T05:58:15;98918.97;;;0.28;86.05
76732;BME280;65656;51.130;13.658;2022-12-07T06:00:43;98911.16;;;0.33;84.70
76732;BME280;65656;51.130;13.658;2022-12-07T06:03:16;98912.41;;;0.37;85.49
76732;BME280;65656;51.130;13.658;2022-12-07T06:05:43;98906.19;;;0.37;85.47
76732;BME280;65656;51.130;13.658;2022-12-07T06:08:09;98910.38;;;0.39;84.81
76732;BME280;65656;51.130;13.658;2022-12-07T06:10:36;98907.41;;;0.34;85.64
76732;BME280;65656;51.130;13.658;2022-12-07T06:13:02;98907.38;;;0.27;86.51
76732;BME280;65656;51.130;13.658;2022-12-07T06:15:29;98906.69;;;0.19;86.51
76732;BME280;65656;51.130;13.658;2022-12-07T06:17:57;98902.81;;;0.28;86.00
76732;BME280;65656;51.130;13.658;2022-12-07T06:20:23;98899.50;;;0.26;86.45
76732;BME280;65656;51.130;13.658;2022-12-07T06:22:50;98912.97;;;0.26;85.36
76732;BME280;65656;51.130;13.658;2022-12-07T06:25:16;98904.03;;;0.25;85.84
76732;BME280;65656;51.130;13.658;2022-12-07T06:27:43;98906.53;;;0.27;85.70
76732;BME280;65656;51.130;13.658;2022-12-07T06:30:09;98899.19;;;0.42;85.30
76732;BME280;65656;51.130;13.658;2022-12-07T06:32:37;98895.91;;;0.53;84.94
76732;BME280;65656;51.130;13.658;2022-12-07T06:35:05;98896.72;;;0.47;86.13
76732;BME280;65656;51.130;13.658;2022-12-07T06:37:32;98903.00;;;0.54;85.47
76732;BME280;65656;51.130;13.658;2022-12-07T06:39:58;98896.78;;;0.61;85.84
76732;BME280;65656;51.130;13.658;2022-12-07T06:42:26;98897.59;;;0.54;86.50
76732;BME280;65656;51.130;13.658;2022-12-07T06:44:52;98892.84;;;0.57;87.05
76732;BME280;65656;51.130;13.658;2022-12-07T06:47:19;98904.28;;;0.65;86.83
76732;BME280;65656;51.130;13.658;2022-12-07T06:50:08;98901.34;;;0.60;88.00
76732;BME280;65656;51.130;13.658;2022-12-07T06:52:34;98901.16;;;0.62;87.97
76732;BME280;65656;51.130;13.658;2022-12-07T06:55:01;98903.69;;;0.70;88.31
76732;BME280;65656;51.130;13.658;2022-12-07T06:57:27;98902.19;;;0.61;88.93
76732;BME280;65656;51.130;13.658;2022-12-07T06:59:54;98897.59;;;0.54;89.77
76732;BME280;65656;51.130;13.658;2022-12-07T07:02:20;98902.59;;;0.58;90.13
76732;BME280;65656;51.130;13.658;2022-12-07T07:04:47;98909.19;;;0.48;91.30
76732;BME280;65656;51.130;13.658;2022-12-07T07:07:15;98912.91;;;0.47;91.97
76732;BME280;65656;51.130;13.658;2022-12-07T07:09:41;98915.59;;;0.47;91.27
76732;BME280;65656;51.130;13.658;2022-12-07T07:12:08;98918.66;;;0.44;92.25
76732;BME280;65656;51.130;13.658;2022-12-07T07:14:34;98917.00;;;0.43;92.02
76732;BME280;65656;51.130;13.658;2022-12-07T07:17:01;98917.41;;;0.40;92.84
76732;BME280;65656;51.130;13.658;2022-12-07T07:19:28;98920.63;;;0.29;93.53
76732;BME280;65656;51.130;13.658;2022-12-07T07:21:54;98926.38;;;0.19;94.68
76732;BME280;65656;51.130;13.658;2022-12-07T07:24:22;98918.03;;;0.14;95.54
76732;BME280;65656;51.130;13.658;2022-12-07T07:26:48;98917.72;;;0.24;95.24
76732;BME280;65656;51.130;13.658;2022-12-07T07:29:15;98928.56;;;0.37;93.86
76732;BME280;65656;51.130;13.658;2022-12-07T07:31:41;98923.22;;;0.44;94.15
76732;BME280;65656;51.130;13.658;2022-12-07T07:34:08;98930.63;;;0.35;94.62
76732;BME280;65656;51.130;13.658;2022-12-07T07:36:35;98925.50;;;0.40;94.89
76732;BME280;65656;51.130;13.658;2022-12-07T07:39:01;98924.06;;;0.44;95.13
76732;BME280;65656;51.130;13.658;2022-12-07T07:41:29;98921.16;;;0.39;94.87
76732;BME280;65656;51.130;13.658;2022-12-07T07:43:55;98925.56;;;0.47;94.30
76732;BME280;65656;51.130;13.658;2022-12-07T07:46:22;98924.94;;;0.51;93.99
76732;BME280;65656;51.130;13.658;2022-12-07T07:48:49;98928.66;;;0.50;93.84
76732;BME280;65656;51.130;13.658;2022-12-07T07:51:15;98921.72;;;0.63;94.01
76732;BME280;65656;51.130;13.658;2022-12-07T07:53:42;98914.31;;;0.78;93.27
76732;BME280;65656;51.130;13.658;2022-12-07T07:56:08;98915.16;;;0.78;92.83
76732;BME280;65656;51.130;13.658;2022-12-07T07:58:36;98916.41;;;0.82;93.55
76732;BME280;65656;51.130;13.658;2022-12-07T08:01:03;98920.56;;;0.78;93.46
76732;BME280;65656;51.130;13.658;2022-12-07T08:03:30;98915.81;;;0.87;93.08
76732;BME280;65656;51.130;13.658;2022-12-07T08:05:57;98925.13;;;0.84;93.12
76732;BME280;65656;51.130;13.658;2022-12-07T08:08:23;98922.25;;;0.93;93.49
76732;BME280;65656;51.130;13.658;2022-12-07T08:10:50;98930.44;;;1.13;91.78
76732;BME280;65656;51.130;13.658;2022-12-07T08:13:16;98926.47;;;1.08;91.79
76732;BME280;65656;51.130;13.658;2022-12-07T08:15:46;98919.41;;;1.07;92.57
76732;BME280;65656;51.130;13.658;2022-12-07T08:18:14;98919.03;;;1.10;91.95
76732;BME280;65656;51.130;13.658;2022-12-07T08:20:42;98903.88;;;1.09;91.71
76732;BME280;65656;51.130;13.658;2022-12-07T08:23:08;98911.16;;;1.16;90.13
76732;BME280;65656;51.130;13.658;2022-12-07T08:25:35;98914.50;;;1.18;91.26
76732;BME280;65656;51.130;13.658;2022-12-07T08:28:02;98914.88;;;1.15;92.02
76732;BME280;65656;51.130;13.658;2022-12-07T08:30:29;98912.41;;;1.20;91.11
76732;BME280;65656;51.130;13.658;2022-12-07T08:32:57;98915.72;;;1.15;91.19
76732;BME280;65656;51.130;13.658;2022-12-07T08:35:24;98913.28;;;1.27;91.11
76732;BME280;65656;51.130;13.658;2022-12-07T08:37:51;98909.53;;;1.28;90.23
76732;BME280;65656;51.130;13.658;2022-12-07T08:40:18;98908.31;;;1.37;89.90
76732;BME280;65656;51.130;13.658;2022-12-07T08:42:48;98917.25;;;1.44;90.57
76732;BME280;65656;51.130;13.658;2022-12-07T08:45:16;98905.84;;;1.42;90.14
76732;BME280;65656;51.130;13.658;2022-12-07T08:47:54;98924.94;;;1.41;89.84
76732;BME280;65656;51.130;13.658;2022-12-07T08:50:24;98921.44;;;1.53;89.52
76732;BME280;65656;51.130;13.658;2022-12-07T08:52:55;98909.59;;;1.54;89.15
76732;BME280;65656;51.130;13.658;2022-12-07T08:55:23;98909.81;;;1.59;88.28
76732;BME280;65656;51.130;13.658;2022-12-07T08:57:50;98907.53;;;1.70;89.19
76732;BME280;65656;51.130;13.658;2022-12-07T09:00:17;98919.63;;;1.74;87.96
76732;BME280;65656;51.130;13.658;2022-12-07T09:02:44;98908.00;;;1.80;88.13
76732;BME280;65656;51.130;13.658;2022-12-07T09:05:12;98898.00;;;1.93;87.57
76732;BME280;65656;51.130;13.658;2022-12-07T09:07:46;98903.03;;;2.03;85.61
76732;BME280;65656;51.130;13.658;2022-12-07T09:10:15;98910.09;;;2.04;86.33
76732;BME280;65656;51.130;13.658;2022-12-07T09:12:41;98913.84;;;2.03;86.51
76732;BME280;65656;51.130;13.658;2022-12-07T09:15:08;98911.53;;;2.07;86.30
76732;BME280;65656;51.130;13.658;2022-12-07T09:17:35;98908.00;;;2.06;85.26
76732;BME280;65656;51.130;13.658;2022-12-07T09:20:02;98917.97;;;2.12;85.74
76732;BME280;65656;51.130;13.658;2022-12-07T09:22:30;98917.97;;;2.26;84.99
76732;BME280;65656;51.130;13.658;2022-12-07T09:24:58;98916.31;;;2.31;85.12
76732;BME280;65656;51.130;13.658;2022-12-07T09:27:26;98921.31;;;2.28;84.67
76732;BME280;65656;51.130;13.658;2022-12-07T09:29:53;98920.47;;;2.27;84.60
76732;BME280;65656;51.130;13.658;2022-12-07T09:32:19;98922.97;;;2.29;84.21
76732;BME280;65656;51.130;13.658;2022-12-07T09:34:46;98920.88;;;2.24;84.35
76732;BME280;65656;51.130;13.658;2022-12-07T09:37:13;98932.13;;;2.28;83.95
76732;BME280;65656;51.130;13.658;2022-12-07T09:39:40;98930.84;;;2.37;82.81
76732;BME280;65656;51.130;13.658;2022-12-07T09:42:27;98922.09;;;2.48;83.86
76732;BME280;65656;51.130;13.658;2022-12-07T09:44:55;98906.31;;;2.45;83.39
76732;BME280;65656;51.130;13.658;2022-12-07T09:47:22;98920.00;;;2.63;83.23
76732;BME280;65656;51.130;13.658;2022-12-07T09:49:48;98913.97;;;2.61;82.24
76732;BME280;65656;51.130;13.658;2022-12-07T09:52:19;98920.41;;;2.67;82.31
76732;BME280;65656;51.130;13.658;2022-12-07T09:54:48;98915.41;;;2.70;81.98
76732;BME280;65656;51.130;13.658;2022-12-07T09:57:16;98915.81;;;2.81;82.81
76732;BME280;65656;51.130;13.658;2022-12-07T09:59:44;98923.06;;;2.80;81.85
76732;BME280;65656;51.130;13.658;2022-12-07T10:02:23;98912.22;;;2.87;82.20
76732;BME280;65656;51.130;13.658;2022-12-07T10:04:50;98909.38;;;2.75;82.12
76732;BME280;65656;51.130;13.658;2022-12-07T10:07:17;98901.81;;;2.97;81.27
76732;BME280;65656;51.130;13.658;2022-12-07T10:09:43;98897.00;;;3.05;80.98
76732;BME280;65656;51.130;13.658;2022-12-07T10:12:11;98907.34;;;3.15;81.88
76732;BME280;65656;51.130;13.658;2022-12-07T10:14:39;98894.38;;;3.30;80.48
76732;BME280;65656;51.130;13.658;2022-12-07T10:17:32;98889.44;;;3.21;79.72
76732;BME280;65656;51.130;13.658;2022-12-07T10:20:14;98889.50;;;3.46;79.48
76732;BME280;65656;51.130;13.658;2022-12-07T10:22:54;98887.66;;;3.40;79.83
76732;BME280;65656;51.130;13.658;2022-12-07T10:25:22;98889.75;;;3.38;79.64
76732;BME280;65656;51.130;13.658;2022-12-07T10:27:57;98888.16;;;3.23;80.30
76732;BME280;65656;51.130;13.658;2022-12-07T10:30:24;98899.78;;;3.30;79.98
76732;BME280;65656;51.130;13.658;2022-12-07T10:32:52;98889.88;;;3.11;80.83
76732;BME280;65656;51.130;13.658;2022-12-07T10:35:22;98895.06;;;3.19;81.01
76732;BME280;65656;51.130;13.658;2022-12-07T10:37:50;98885.34;;;3.05;80.52
76732;BME280;65656;51.130;13.658;2022-12-07T10:40:29;98878.69;;;3.01;80.91
76732;BME280;65656;51.130;13.658;2022-12-07T10:43:05;98888.69;;;2.94;81.74
76732;BME280;65656;51.130;13.658;2022-12-07T10:45:32;98888.69;;;2.94;81.89
76732;BME280;65656;51.130;13.658;2022-12-07T10:48:14;98885.34;;;2.98;81.59
76732;BME280;65656;51.130;13.658;2022-12-07T10:50:54;98885.81;;;2.89;82.08
76732;BME280;65656;51.130;13.658;2022-12-07T10:53:35;98905.00;;;2.81;82.62
76732;BME280;65656;51.130;13.658;2022-12-07T10:56:27;98888.34;;;2.77;83.61
76732;BME280;65656;51.130;13.658;2022-12-07T10:59:05;98887.50;;;2.76;83.24
76732;BME280;65656;51.130;13.658;2022-12-07T11:01:43;98879.63;;;2.75;83.57
76732;BME280;65656;51.130;13.658;2022-12-07T11:04:30;98871.72;;;2.73;83.73
76732;BME280;65656;51.130;13.658;2022-12-07T11:07:04;98870.00;;;2.86;84.22
76732;BME280;65656;51.130;13.658;2022-12-07T11:09:47;98873.25;;;3.01;84.17
76732;BME280;65656;51.130;13.658;2022-12-07T11:12:46;98869.25;;;3.10;82.71
76732;BME280;65656;51.130;13.658;2022-12-07T11:15:17;98860.31;;;3.10;82.68
76732;BME280;65656;51.130;13.658;2022-12-07T11:17:48;98858.28;;;3.05;82.56
76732;BME280;65656;51.130;13.658;2022-12-07T11:20:32;98871.59;;;3.00;82.73
76732;BME280;65656;51.130;13.658;2022-12-07T11:23:06;98857.88;;;2.95;82.99
76732;BME280;65656;51.130;13.658;2022-12-07T11:25:43;98867.88;;;2.94;83.35
76732;BME280;65656;51.130;13.658;2022-12-07T11:28:21;98862.13;;;2.77;83.69
76732;BME280;65656;51.130;13.658;2022-12-07T11:30:57;98868.59;;;2.63;84.88
76732;BME280;65656;51.130;13.658;2022-12-07T11:33:35;98869.69;;;2.49;87.66
76732;BME280;65656;51.130;13.658;2022-12-07T11:36:11;98883.91;;;2.11;88.80
76732;BME280;65656;51.130;13.658;2022-12-07T11:38:47;98884.72;;;1.92;90.63
76732;BME280;65656;51.130;13.658;2022-12-07T11:41:20;98879.69;;;1.62;91.49
76732;BME280;65656;51.130;13.658;2022-12-07T11:43:57;98874.72;;;1.59;92.44
76732;BME280;65656;51.130;13.658;2022-12-07T11:46:27;98865.19;;;1.63;93.38
76732;BME280;65656;51.130;13.658;2022-12-07T11:49:02;98869.94;;;1.68;93.17
76732;BME280;65656;51.130;13.658;2022-12-07T11:51:34;98860.19;;;1.74;93.76
76732;BME280;65656;51.130;13.658;2022-12-07T11:54:09;98860.22;;;1.80;93.37
76732;BME280;65656;51.130;13.658;2022-12-07T11:56:38;98861.03;;;1.74;92.73
76732;BME280;65656;51.130;13.658;2022-12-07T11:59:09;98874.75;;;1.73;93.32
76732;BME280;65656;51.130;13.658;2022-12-07T12:01:48;98876.81;;;1.71;93.46
76732;BME280;65656;51.130;13.658;2022-12-07T12:04:25;98866.41;;;1.61;93.08
76732;BME280;65656;51.130;13.658;2022-12-07T12:06:56;98860.19;;;1.60;93.42
76732;BME280;65656;51.130;13.658;2022-12-07T12:09:27;98852.69;;;1.62;93.13
76732;BME280;65656;51.130;13.658;2022-12-07T12:12:27;98858.53;;;1.66;94.26
76732;BME280;65656;51.130;13.658;2022-12-07T12:15:26;98847.75;;;1.79;94.28
76732;BME280;65656;51.130;13.658;2022-12-07T12:18:17;98858.53;;;1.99;92.20
76732;BME280;65656;51.130;13.658;2022-12-07T12:20:50;98841.06;;;2.15;92.63
76732;BME280;65656;51.130;13.658;2022-12-07T12:23:21;98844.81;;;2.14;92.21
76732;BME280;65656;51.130;13.658;2022-12-07T12:25:51;98846.88;;;2.18;92.04
76732;BME280;65656;51.130;13.658;2022-12-07T12:28:23;98840.22;;;2.21;91.34
76732;BME280;65656;51.130;13.658;2022-12-07T12:31:06;98837.31;;;2.22;90.26
76732;BME280;65656;51.130;13.658;2022-12-07T12:33:34;98853.28;;;2.31;89.10
76732;BME280;65656;51.130;13.658;2022-12-07T12:36:20;98840.22;;;2.34;90.77
76732;BME280;65656;51.130;13.658;2022-12-07T12:38:51;98838.50;;;2.40;91.59
76732;BME280;65656;51.130;13.658;2022-12-07T12:41:56;98840.59;;;2.44;90.12
76732;BME280;65656;51.130;13.658;2022-12-07T12:44:42;98838.09;;;2.43;89.68
76732;BME280;65656;51.130;13.658;2022-12-07T12:47:54;98838.09;;;2.43;90.13
76732;BME280;65656;51.130;13.658;2022-12-07T12:50:23;98836.84;;;2.39;90.20
76732;BME280;65656;51.130;13.658;2022-12-07T12:52:56;98838.94;;;2.37;91.04
76732;BME280;65656;51.130;13.658;2022-12-07T12:58:43;98834.78;;;2.34;88.21
76732;BME280;65656;51.130;13.658;2022-12-07T13:01:41;98833.16;;;2.27;90.05
76732;BME280;65656;51.130;13.658;2022-12-07T13:06:59;98835.69;;;1.82;90.82
76732;BME280;65656;51.130;13.658;2022-12-07T13:09:28;98856.03;;;1.51;91.52
76732;BME280;65656;51.130;13.658;2022-12-07T13:11:59;98855.31;;;1.09;92.90
76732;BME280;65656;51.130;13.658;2022-12-07T13:14:56;98854.19;;;0.84;93.97
76732;BME280;65656;51.130;13.658;2022-12-07T13:17:58;98849.53;;;0.65;94.36
76732;BME280;65656;51.130;13.658;2022-12-07T13:20:48;98839.31;;;0.53;94.48
76732;BME280;65656;51.130;13.658;2022-12-07T13:23:18;98857.72;;;0.43;95.23
76732;BME280;65656;51.130;13.658;2022-12-07T13:25:51;98841.31;;;0.38;95.04